Time;durP1;ratioP1;P1;durP2;ratioP2;P2;SDS_P1;SDS_P2;PMS_P1;PMS_P2;Temp;Humidity;BMP_temperature;BMP_pressure;BME280_temperature;BME280_humidity;BME280_pressure;Samples;Min_cycle;Max_cycle;Signal;HPM_P1;HPM_P2
2021/01/18 00:01:22;;;;;;;26.40;13.83;;;0.60;99.90;;;;;;5031903;28;20033;-80
2021/01/18 00:03:48;;;;;;;24.87;12.67;;;0.60;99.90;;;;;;5032812;28;20508;-81
2021/01/18 00:06:18;;;;;;;22.43;11.27;;;0.60;99.90;;;;;;5030494;28;20642;-78
2021/01/18 00:08:44;;;;;;;19.38;9.50;;;0.60;99.90;;;;;;5034288;28;20025;-79
2021/01/18 00:11:11;;;;;;;23.97;12.73;;;0.60;99.90;;;;;;5033379;28;20026;-80
2021/01/18 00:13:37;;;;;;;18.37;10.60;;;0.60;99.90;;;;;;5032361;28;20565;-80
2021/01/18 00:16:03;;;;;;;21.40;11.60;;;0.60;99.90;;;;;;5031846;28;20030;-81
2021/01/18 00:18:30;;;;;;;20.03;10.37;;;0.60;99.90;;;;;;5031785;28;20048;-80
2021/01/18 00:20:56;;;;;;;19.10;10.77;;;0.70;99.90;;;;;;5026839;28;20045;-80
2021/01/18 00:23:22;;;;;;;17.27;9.03;;;0.70;99.90;;;;;;5031115;28;20089;-80
2021/01/18 00:25:48;;;;;;;12.30;6.00;;;0.70;99.90;;;;;;5026921;28;20095;-80
2021/01/18 00:28:13;;;;;;;12.83;7.20;;;0.80;99.90;;;;;;5016436;28;20017;-81
2021/01/18 00:30:39;;;;;;;19.73;9.50;;;0.80;99.90;;;;;;5035687;28;20032;-82
2021/01/18 00:33:05;;;;;;;17.13;9.37;;;0.80;99.90;;;;;;5035698;28;20021;-81
2021/01/18 00:35:32;;;;;;;17.03;10.13;;;0.80;99.90;;;;;;5034356;28;20086;-81
2021/01/18 00:37:58;;;;;;;14.53;7.83;;;0.80;99.90;;;;;;5013413;28;20068;-79
2021/01/18 00:40:24;;;;;;;17.77;9.83;;;0.80;99.90;;;;;;5030205;28;20060;-80
2021/01/18 00:42:51;;;;;;;15.30;8.63;;;0.80;99.90;;;;;;5031499;28;20429;-80
2021/01/18 00:45:19;;;;;;;13.03;7.90;;;0.80;99.90;;;;;;5031335;28;20030;-81
2021/01/18 00:47:47;;;;;;;17.13;8.43;;;0.80;99.90;;;;;;5030388;28;20109;-79
2021/01/18 00:50:14;;;;;;;11.67;7.23;;;0.80;99.90;;;;;;5038244;28;20025;-80
2021/01/18 00:52:45;;;;;;;15.70;9.10;;;0.90;99.90;;;;;;5035376;28;20120;-80
2021/01/18 00:55:12;;;;;;;10.60;6.47;;;0.90;99.90;;;;;;5037424;28;20029;-80
2021/01/18 00:57:37;;;;;;;11.17;6.03;;;0.90;99.90;;;;;;5032132;28;20026;-80
2021/01/18 01:00:07;;;;;;;9.23;5.97;;;0.90;99.90;;;;;;5030764;28;20040;-81
2021/01/18 01:02:32;;;;;;;13.52;7.95;;;0.90;99.90;;;;;;5028463;28;20028;-80
2021/01/18 01:04:58;;;;;;;11.73;7.30;;;0.90;99.90;;;;;;5030416;28;20551;-81
2021/01/18 01:07:23;;;;;;;13.10;7.07;;;0.90;99.90;;;;;;5029679;28;20035;-80
2021/01/18 01:09:49;;;;;;;14.97;8.67;;;0.90;99.90;;;;;;5030379;28;20108;-80
2021/01/18 01:12:19;;;;;;;12.03;7.33;;;0.90;99.90;;;;;;5029512;28;20392;-80
2021/01/18 01:14:45;;;;;;;7.40;4.90;;;0.90;99.90;;;;;;5050146;28;20464;-80
2021/01/18 01:17:12;;;;;;;10.37;6.47;;;0.90;99.90;;;;;;5051585;28;20096;-80
2021/01/18 01:19:37;;;;;;;9.00;5.40;;;0.90;99.90;;;;;;5053028;28;20067;-80
2021/01/18 01:22:04;;;;;;;12.00;6.53;;;0.90;99.90;;;;;;5049471;28;20021;-80
2021/01/18 01:24:30;;;;;;;14.30;8.73;;;0.90;99.90;;;;;;5049927;28;20032;-80
2021/01/18 01:26:55;;;;;;;13.90;7.37;;;0.90;99.90;;;;;;5049635;28;20508;-79
2021/01/18 01:29:21;;;;;;;10.20;6.23;;;0.90;99.90;;;;;;5049287;28;20025;-80
2021/01/18 01:31:47;;;;;;;9.77;5.50;;;0.90;99.90;;;;;;5050089;28;20025;-79
2021/01/18 01:34:12;;;;;;;13.20;8.33;;;0.90;99.90;;;;;;5050740;28;20027;-80
2021/01/18 01:36:42;;;;;;;9.50;5.13;;;0.90;99.90;;;;;;5049990;28;20025;-79
2021/01/18 01:39:08;;;;;;;9.63;5.47;;;0.90;99.90;;;;;;5050260;28;20041;-82
2021/01/18 01:41:34;;;;;;;10.23;6.50;;;0.90;99.90;;;;;;5049044;28;20033;-80
2021/01/18 01:43:59;;;;;;;12.00;6.50;;;0.90;99.90;;;;;;5049579;28;20040;-79
2021/01/18 01:46:25;;;;;;;11.60;7.37;;;0.90;99.90;;;;;;5050017;28;20089;-80
2021/01/18 01:48:51;;;;;;;7.43;3.80;;;0.90;99.90;;;;;;5050240;28;20040;-80
2021/01/18 01:51:18;;;;;;;10.00;5.97;;;0.90;99.90;;;;;;5049902;28;20070;-80
2021/01/18 01:53:44;;;;;;;7.77;4.00;;;0.90;99.90;;;;;;5044245;28;20032;-81
2021/01/18 01:56:10;;;;;;;8.20;4.40;;;0.90;99.90;;;;;;5050553;28;20036;-81
2021/01/18 01:58:36;;;;;;;11.97;6.47;;;0.90;99.90;;;;;;5049129;28;20472;-80
2021/01/18 02:01:04;;;;;;;8.63;4.97;;;0.90;99.90;;;;;;5030028;28;20040;-81
2021/01/18 02:03:30;;;;;;;12.43;6.70;;;1.00;99.90;;;;;;5049825;28;20457;-80
2021/01/18 02:05:56;;;;;;;11.60;6.17;;;0.90;99.90;;;;;;5049421;28;20029;-78
2021/01/18 02:08:21;;;;;;;9.43;5.87;;;0.90;99.90;;;;;;5048851;28;20111;-81
2021/01/18 02:10:47;;;;;;;10.90;6.13;;;0.90;99.90;;;;;;5048477;28;20124;-80
2021/01/18 02:13:38;;;;;;;10.33;6.50;;;1.00;99.90;;;;;;5045798;28;20046;-80
2021/01/18 02:16:19;;;;;;;8.27;4.40;;;0.90;99.90;;;;;;5025677;28;20033;-79
2021/01/18 02:19:02;;;;;;;10.40;5.60;;;0.90;99.90;;;;;;5028074;28;20014;-79
2021/01/18 02:21:54;;;;;;;11.57;6.83;;;0.90;99.90;;;;;;5033092;28;20049;-81
2021/01/18 02:25:05;;;;;;;10.60;6.17;;;0.90;99.90;;;;;;5029168;28;20040;-81
2021/01/18 02:27:49;;;;;;;9.00;5.10;;;0.90;99.90;;;;;;5008689;28;20049;-80
2021/01/18 02:30:32;;;;;;;11.83;5.87;;;0.90;99.90;;;;;;5027711;28;20477;-81
2021/01/18 02:33:01;;;;;;;14.53;6.90;;;0.90;99.90;;;;;;5026154;28;20029;-80
2021/01/18 02:35:54;;;;;;;11.00;6.43;;;1.00;99.90;;;;;;5028428;28;20097;-81
2021/01/18 02:38:42;;;;;;;11.80;6.87;;;0.90;99.90;;;;;;5028701;28;20030;-80
2021/01/18 02:41:45;;;;;;;14.87;8.20;;;1.00;99.90;;;;;;5022391;28;20094;-80
2021/01/18 02:44:17;;;;;;;14.23;8.10;;;0.90;99.90;;;;;;5013687;28;20096;-79
2021/01/18 02:46:45;;;;;;;16.20;8.57;;;0.90;99.90;;;;;;5027213;28;20033;-81
2021/01/18 02:49:12;;;;;;;10.33;5.83;;;0.90;99.90;;;;;;5027084;28;20056;-81
2021/01/18 02:51:45;;;;;;;16.17;9.90;;;0.90;99.90;;;;;;5029080;28;20026;-79
2021/01/18 02:54:11;;;;;;;12.67;7.67;;;0.90;99.90;;;;;;5028150;28;20026;-79
2021/01/18 02:56:40;;;;;;;16.40;8.97;;;0.90;99.90;;;;;;5030580;28;20033;-81
2021/01/18 02:59:11;;;;;;;17.50;9.63;;;0.90;99.90;;;;;;5029604;28;20073;-79
2021/01/18 03:01:43;;;;;;;19.17;9.90;;;0.90;99.90;;;;;;5040576;28;20614;-80
2021/01/18 03:04:33;;;;;;;15.43;8.20;;;0.90;99.90;;;;;;5034628;28;20036;-79
2021/01/18 03:07:07;;;;;;;16.37;9.13;;;0.90;99.90;;;;;;5034327;28;20025;-80
2021/01/18 03:09:39;;;;;;;12.77;7.07;;;0.90;99.90;;;;;;5033388;28;20017;-79
2021/01/18 03:12:09;;;;;;;9.07;5.13;;;1.00;99.90;;;;;;5031639;28;20079;-80
2021/01/18 03:14:45;;;;;;;17.53;10.13;;;1.00;99.90;;;;;;5044293;28;20501;-80
2021/01/18 03:17:17;;;;;;;8.30;4.70;;;1.00;99.90;;;;;;5030866;28;20037;-81
2021/01/18 03:19:44;;;;;;;11.90;6.33;;;1.00;99.90;;;;;;5029712;28;20049;-81
2021/01/18 03:22:30;;;;;;;18.30;9.53;;;1.00;99.90;;;;;;5033560;28;20119;-81
2021/01/18 03:25:07;;;;;;;8.87;5.87;;;1.00;99.90;;;;;;5052527;28;20067;-81
2021/01/18 03:27:53;;;;;;;16.97;9.10;;;1.00;99.90;;;;;;5052748;28;20033;-80
2021/01/18 03:30:21;;;;;;;15.63;9.13;;;1.00;99.90;;;;;;5049958;28;20151;-79
2021/01/18 03:32:50;;;;;;;13.90;6.37;;;1.00;99.90;;;;;;5052230;28;20079;-80
2021/01/18 03:35:17;;;;;;;14.73;6.97;;;1.00;99.90;;;;;;5052096;28;20033;-81
2021/01/18 03:37:44;;;;;;;9.83;5.87;;;1.00;99.90;;;;;;5034528;28;20025;-80
2021/01/18 03:40:10;;;;;;;17.17;8.63;;;1.10;99.90;;;;;;5050285;28;20041;-80
2021/01/18 03:42:35;;;;;;;12.80;6.93;;;1.00;99.90;;;;;;5050831;28;20036;-80
2021/01/18 03:45:01;;;;;;;11.17;5.53;;;1.10;99.90;;;;;;5052653;28;20067;-80
2021/01/18 03:47:27;;;;;;;11.80;6.53;;;1.10;99.90;;;;;;5052540;28;20503;-79
2021/01/18 03:49:52;;;;;;;17.53;7.80;;;1.10;99.90;;;;;;5051216;28;20020;-80
2021/01/18 03:52:18;;;;;;;13.70;7.33;;;1.10;99.90;;;;;;5050962;28;20416;-80
2021/01/18 03:54:43;;;;;;;17.47;8.87;;;1.10;99.90;;;;;;5051857;28;20033;-79
2021/01/18 03:57:09;;;;;;;13.83;5.73;;;1.10;99.90;;;;;;5052162;28;20021;-80
2021/01/18 03:59:35;;;;;;;9.63;4.97;;;1.10;99.90;;;;;;5051977;28;20041;-80
2021/01/18 04:02:00;;;;;;;13.80;7.83;;;1.10;99.90;;;;;;5050353;28;20025;-79
2021/01/18 04:04:26;;;;;;;15.40;8.07;;;1.10;99.90;;;;;;5034521;28;20032;-80
2021/01/18 04:06:52;;;;;;;11.27;6.90;;;1.10;99.90;;;;;;5051805;28;20029;-80
2021/01/18 04:09:17;;;;;;;12.77;6.33;;;1.10;99.90;;;;;;5034251;28;20074;-81
2021/01/18 04:11:43;;;;;;;12.10;5.93;;;1.10;99.90;;;;;;5052381;28;20112;-80
2021/01/18 04:14:09;;;;;;;12.37;6.57;;;1.10;99.90;;;;;;5050860;28;20048;-79
2021/01/18 04:16:41;;;;;;;16.87;7.93;;;1.10;99.90;;;;;;5051138;28;20382;-79
2021/01/18 04:19:08;;;;;;;15.27;7.70;;;1.10;99.90;;;;;;5048898;28;20040;-80
2021/01/18 04:21:37;;;;;;;10.63;5.33;;;1.10;99.90;;;;;;5051523;28;20040;-81
2021/01/18 04:24:03;;;;;;;11.38;5.47;;;1.10;99.90;;;;;;5050532;28;20469;-80
2021/01/18 04:26:28;;;;;;;8.30;4.17;;;1.10;99.90;;;;;;5049160;28;20043;-81
2021/01/18 04:28:54;;;;;;;13.37;4.97;;;1.10;99.90;;;;;;5033839;28;20451;-81
2021/01/18 04:31:20;;;;;;;11.30;5.20;;;1.10;99.90;;;;;;5035173;28;20052;-80
2021/01/18 04:33:45;;;;;;;11.93;6.00;;;1.10;99.90;;;;;;5050702;28;20029;-81
2021/01/18 04:36:11;;;;;;;6.47;3.50;;;1.10;99.90;;;;;;5049432;28;20104;-79
2021/01/18 04:38:36;;;;;;;11.67;6.57;;;1.10;99.90;;;;;;5051165;28;20048;-79
2021/01/18 04:41:08;;;;;;;8.77;4.60;;;1.10;99.90;;;;;;5051104;28;20037;-80
2021/01/18 04:43:35;;;;;;;13.47;6.63;;;1.10;99.90;;;;;;5049801;28;20041;-80
2021/01/18 04:46:03;;;;;;;8.03;4.10;;;1.10;99.90;;;;;;5037805;28;20136;-80
2021/01/18 04:48:29;;;;;;;14.33;6.13;;;1.10;99.90;;;;;;5033471;28;20063;-79
2021/01/18 04:50:55;;;;;;;8.23;3.67;;;1.10;99.90;;;;;;5051666;28;20456;-78
2021/01/18 04:53:25;;;;;;;10.77;4.97;;;1.10;99.90;;;;;;5050227;28;20120;-80
2021/01/18 04:56:06;;;;;;;12.43;5.60;;;1.20;99.90;;;;;;5048629;28;20118;-79
2021/01/18 04:58:37;;;;;;;10.57;4.30;;;1.10;99.90;;;;;;5032560;28;20033;-79
2021/01/18 05:01:04;;;;;;;13.33;6.10;;;1.10;99.90;;;;;;5047347;28;20048;-79
2021/01/18 05:03:35;;;;;;;12.47;5.23;;;1.10;99.90;;;;;;5051045;28;20392;-82
2021/01/18 05:06:12;;;;;;;11.83;5.13;;;1.00;99.90;;;;;;5047657;28;20405;-80
2021/01/18 05:08:57;;;;;;;11.00;4.67;;;1.00;99.90;;;;;;5049892;28;20079;-80
2021/01/18 05:11:22;;;;;;;9.70;4.90;;;1.00;99.90;;;;;;5050599;28;20028;-80
2021/01/18 05:13:48;;;;;;;15.17;7.33;;;1.00;99.90;;;;;;5027123;28;20049;-80
2021/01/18 05:16:14;;;;;;;11.70;5.10;;;1.00;99.90;;;;;;5033833;28;20024;-79
2021/01/18 05:18:41;;;;;;;6.43;3.47;;;1.00;99.90;;;;;;5049955;28;20544;-79
2021/01/18 05:21:08;;;;;;;9.17;3.93;;;1.00;99.90;;;;;;5041047;28;20034;-76
2021/01/18 05:23:43;;;;;;;9.20;5.00;;;1.00;99.90;;;;;;5036181;28;20032;-78
2021/01/18 05:26:21;;;;;;;10.97;4.50;;;1.00;99.90;;;;;;5028638;28;20546;-76
2021/01/18 05:28:52;;;;;;;10.20;4.03;;;1.00;99.90;;;;;;5028195;28;20038;-76
2021/01/18 05:31:27;;;;;;;8.27;4.47;;;1.00;99.90;;;;;;5032003;28;20025;-75
2021/01/18 05:34:05;;;;;;;10.67;5.33;;;1.10;99.90;;;;;;5024311;28;20097;-75
2021/01/18 05:36:39;;;;;;;8.40;4.90;;;1.10;99.90;;;;;;5032234;28;20109;-76
2021/01/18 05:39:15;;;;;;;8.83;4.80;;;1.10;99.90;;;;;;5029083;28;20029;-74
2021/01/18 05:41:43;;;;;;;10.03;5.13;;;1.10;99.90;;;;;;5023832;28;20120;-80
2021/01/18 05:44:09;;;;;;;16.10;6.10;;;1.10;99.90;;;;;;5028916;28;20037;-80
2021/01/18 05:46:37;;;;;;;11.97;5.00;;;1.10;99.90;;;;;;5028937;28;20493;-76
2021/01/18 05:49:21;;;;;;;14.17;5.90;;;1.10;99.90;;;;;;5028017;28;20033;-76
2021/01/18 05:51:54;;;;;;;9.07;4.47;;;1.10;99.90;;;;;;5027745;28;20159;-77
2021/01/18 05:54:24;;;;;;;5.93;3.27;;;1.10;99.90;;;;;;5027134;28;20025;-76
2021/01/18 05:56:55;;;;;;;9.63;4.50;;;1.10;99.90;;;;;;5023432;28;20032;-75
2021/01/18 05:59:26;;;;;;;8.80;3.90;;;1.10;99.90;;;;;;5027530;28;20041;-77
2021/01/18 06:01:55;;;;;;;7.27;3.87;;;1.20;99.90;;;;;;5028538;28;20029;-75
2021/01/18 06:04:27;;;;;;;9.07;4.80;;;1.20;99.90;;;;;;5029587;28;20048;-76
2021/01/18 06:06:54;;;;;;;10.77;4.73;;;1.10;99.90;;;;;;5029519;28;20048;-75
2021/01/18 06:09:20;;;;;;;10.70;5.10;;;1.10;99.90;;;;;;5029039;28;20036;-76
2021/01/18 06:11:46;;;;;;;11.13;5.43;;;1.10;99.90;;;;;;5028773;28;20385;-75
2021/01/18 06:14:11;;;;;;;13.57;6.73;;;1.10;99.90;;;;;;5028711;28;20060;-76
2021/01/18 06:16:40;;;;;;;11.77;5.60;;;1.10;99.90;;;;;;5027620;28;20034;-75
2021/01/18 06:19:08;;;;;;;13.30;5.37;;;1.10;99.90;;;;;;5028245;28;20056;-76
2021/01/18 06:21:39;;;;;;;9.32;4.75;;;1.10;99.90;;;;;;5010690;28;20079;-75
2021/01/18 06:24:21;;;;;;;9.97;4.53;;;1.10;99.90;;;;;;5025923;28;20485;-75
2021/01/18 06:26:48;;;;;;;11.07;5.37;;;1.10;99.90;;;;;;5011183;28;20049;-77
2021/01/18 06:29:36;;;;;;;9.43;3.57;;;1.10;99.90;;;;;;5028835;28;20100;-76
2021/01/18 06:32:03;;;;;;;11.03;4.77;;;1.20;99.90;;;;;;5028600;28;20455;-75
2021/01/18 06:34:29;;;;;;;12.47;5.83;;;1.20;99.90;;;;;;5010853;28;20081;-75
2021/01/18 06:36:58;;;;;;;12.57;4.30;;;1.20;99.90;;;;;;5027085;28;20033;-75
2021/01/18 06:39:30;;;;;;;10.57;4.97;;;1.20;99.90;;;;;;5029069;28;20081;-75
2021/01/18 06:42:02;;;;;;;13.03;6.37;;;1.20;99.90;;;;;;5014525;28;20068;-75
2021/01/18 06:44:39;;;;;;;14.40;5.47;;;1.20;99.90;;;;;;5031243;28;20021;-75
2021/01/18 06:47:28;;;;;;;13.70;5.50;;;1.20;99.90;;;;;;5029231;28;20029;-75
2021/01/18 06:49:56;;;;;;;11.77;5.32;;;1.20;99.90;;;;;;5026952;28;20060;-77
2021/01/18 06:52:30;;;;;;;10.07;5.70;;;1.20;99.90;;;;;;5028942;28;20040;-77
2021/01/18 06:55:08;;;;;;;11.13;5.87;;;1.30;99.90;;;;;;5029936;28;20025;-77
2021/01/18 06:57:47;;;;;;;13.43;6.13;;;1.30;99.90;;;;;;5026002;28;20032;-75
2021/01/18 07:00:15;;;;;;;15.05;6.90;;;1.20;99.90;;;;;;5032199;28;20216;-78
2021/01/18 07:02:55;;;;;;;13.50;7.20;;;1.30;99.90;;;;;;5032200;28;20646;-75
2021/01/18 07:05:44;;;;;;;9.57;4.33;;;1.30;99.90;;;;;;5032538;28;20485;-75
2021/01/18 07:08:12;;;;;;;7.38;3.78;;;1.30;99.90;;;;;;5032422;28;20108;-77
2021/01/18 07:10:53;;;;;;;9.57;4.40;;;1.20;99.90;;;;;;5035504;28;20372;-76
2021/01/18 07:13:19;;;;;;;7.90;4.53;;;1.20;99.90;;;;;;5033153;28;20132;-77
2021/01/18 07:15:47;;;;;;;14.37;6.47;;;1.20;99.90;;;;;;5032128;28;20044;-77
2021/01/18 07:18:13;;;;;;;11.83;4.30;;;1.20;99.90;;;;;;5034109;28;20021;-76
2021/01/18 07:20:45;;;;;;;12.37;6.07;;;1.20;99.90;;;;;;5039041;28;20042;-76
2021/01/18 07:23:11;;;;;;;16.40;7.33;;;1.20;99.90;;;;;;5025864;28;20033;-76
2021/01/18 07:25:38;;;;;;;15.17;7.40;;;1.20;99.90;;;;;;5032205;28;20045;-76
2021/01/18 07:28:06;;;;;;;19.53;8.90;;;1.20;99.90;;;;;;5032416;28;20116;-77
2021/01/18 07:30:36;;;;;;;9.20;3.90;;;1.20;99.90;;;;;;5013069;28;20029;-78
2021/01/18 07:33:08;;;;;;;10.70;5.00;;;1.20;99.90;;;;;;5031054;28;20021;-77
2021/01/18 07:35:35;;;;;;;13.07;6.00;;;1.20;99.90;;;;;;5031050;28;20389;-78
2021/01/18 07:38:13;;;;;;;12.07;5.70;;;1.10;99.90;;;;;;5032677;28;20029;-76
2021/01/18 07:40:40;;;;;;;11.27;6.33;;;1.10;99.90;;;;;;5031609;28;20048;-77
2021/01/18 07:43:06;;;;;;;10.10;5.27;;;1.10;99.90;;;;;;5031143;28;20448;-76
2021/01/18 07:45:32;;;;;;;14.43;7.20;;;1.10;99.90;;;;;;5029799;28;20029;-75
2021/01/18 07:47:57;;;;;;;14.03;6.77;;;1.10;99.90;;;;;;5035535;28;20425;-77
2021/01/18 07:50:31;;;;;;;12.30;5.80;;;1.20;99.90;;;;;;5032207;28;20034;-78
2021/01/18 07:52:58;;;;;;;14.03;5.03;;;1.10;99.90;;;;;;5027391;28;20125;-77
2021/01/18 07:55:23;;;;;;;11.03;5.50;;;1.20;99.90;;;;;;5031823;28;20022;-76
2021/01/18 07:57:49;;;;;;;15.07;7.63;;;1.10;99.90;;;;;;5031261;28;20618;-78
2021/01/18 08:00:27;;;;;;;14.23;5.27;;;1.20;99.90;;;;;;5031703;28;20362;-77
2021/01/18 08:03:08;;;;;;;14.40;6.93;;;1.20;99.90;;;;;;5025959;28;20029;-78
2021/01/18 08:05:38;;;;;;;11.83;6.37;;;1.20;99.90;;;;;;5031559;28;20570;-77
2021/01/18 08:08:08;;;;;;;15.70;7.47;;;1.20;99.90;;;;;;5030833;28;20105;-79
2021/01/18 08:11:04;;;;;;;11.60;5.87;;;1.20;99.90;;;;;;5031741;28;20100;-77
2021/01/18 08:13:48;;;;;;;12.83;5.67;;;1.20;99.90;;;;;;5027256;28;20052;-77
2021/01/18 08:16:27;;;;;;;10.13;4.73;;;1.20;99.90;;;;;;5032288;28;20366;-76
2021/01/18 08:19:11;;;;;;;14.17;6.63;;;1.20;99.90;;;;;;5031166;28;20064;-78
2021/01/18 08:21:43;;;;;;;12.93;5.33;;;1.20;99.90;;;;;;5029720;28;20292;-77
2021/01/18 08:24:27;;;;;;;11.80;5.37;;;1.20;99.90;;;;;;5026129;28;20014;-76
2021/01/18 08:26:55;;;;;;;12.27;6.32;;;1.10;99.90;;;;;;5031253;28;20080;-77
2021/01/18 08:29:46;;;;;;;10.70;4.50;;;1.20;99.90;;;;;;5030292;28;20029;-76
2021/01/18 08:35:21;;;;;;;12.80;4.30;;;1.10;99.90;;;;;;5026461;28;20026;-79
2021/01/18 08:37:55;;;;;;;14.43;5.57;;;1.10;99.90;;;;;;5029422;28;20077;-77
2021/01/18 08:40:21;;;;;;;9.33;4.10;;;1.10;99.90;;;;;;5028294;28;20516;-76
2021/01/18 08:42:55;;;;;;;10.43;4.70;;;1.00;99.90;;;;;;5030382;28;20036;-76
2021/01/18 08:45:38;;;;;;;11.93;5.33;;;1.00;99.90;;;;;;5028311;28;20051;-77
2021/01/18 08:48:06;;;;;;;14.57;4.90;;;1.00;99.90;;;;;;5029512;28;20029;-77
2021/01/18 08:50:46;;;;;;;9.97;4.60;;;1.00;99.90;;;;;;5024668;28;20394;-76
2021/01/18 08:53:32;;;;;;;14.27;5.30;;;1.00;99.90;;;;;;5032067;28;20100;-75
2021/01/18 08:56:01;;;;;;;7.17;3.67;;;1.00;99.90;;;;;;5030370;28;20017;-77
2021/01/18 08:58:30;;;;;;;;;;;1.00;99.90;;;;;;5030460;28;20069;-76
2021/01/18 09:00:58;;;;;;;9.43;4.20;;;1.00;99.90;;;;;;5011753;28;19925;-77
2021/01/18 09:03:23;;;;;;;12.63;5.53;;;1.00;99.90;;;;;;5028988;28;20021;-77
2021/01/18 09:05:55;;;;;;;9.90;4.30;;;0.90;99.90;;;;;;5030594;28;20126;-76
2021/01/18 09:08:22;;;;;;;9.03;4.10;;;0.90;99.90;;;;;;5030139;28;20037;-74
2021/01/18 09:11:08;;;;;;;11.33;3.80;;;0.90;99.90;;;;;;5030392;28;20022;-78
2021/01/18 09:13:36;;;;;;;7.27;3.93;;;0.90;99.90;;;;;;5029336;28;20048;-77
2021/01/18 09:16:07;;;;;;;9.67;4.00;;;0.90;99.90;;;;;;5030992;28;20029;-76
2021/01/18 09:18:34;;;;;;;9.50;2.83;;;0.90;99.90;;;;;;5030065;28;20076;-77
2021/01/18 09:21:00;;;;;;;7.87;2.93;;;0.90;99.90;;;;;;5030014;28;20029;-76
2021/01/18 09:23:26;;;;;;;8.27;3.63;;;0.90;99.90;;;;;;5029906;28;20087;-76
2021/01/18 09:26:11;;;;;;;9.07;4.20;;;0.90;99.90;;;;;;5029764;28;20120;-77
2021/01/18 09:28:52;;;;;;;12.33;4.70;;;0.90;99.90;;;;;;5028510;28;20400;-79
2021/01/18 09:31:19;;;;;;;13.50;5.83;;;0.90;99.90;;;;;;5037030;28;20044;-77
2021/01/18 09:33:44;;;;;;;9.10;3.30;;;0.90;99.90;;;;;;5029483;28;20049;-78
2021/01/18 09:36:38;;;;;;;8.10;3.10;;;0.90;99.90;;;;;;5029099;28;20056;-76
2021/01/18 09:39:05;;;;;;;10.67;3.47;;;0.90;99.90;;;;;;4929610;29;20035;-76
2021/01/18 09:41:32;;;;;;;8.30;3.80;;;0.90;99.90;;;;;;4930267;29;20068;-76
2021/01/18 09:44:04;;;;;;;9.47;3.57;;;1.00;99.90;;;;;;4930009;29;20111;-76
2021/01/18 09:46:31;;;;;;;11.40;3.60;;;1.00;99.90;;;;;;4930124;29;20147;-76
2021/01/18 09:48:57;;;;;;;8.43;3.53;;;1.00;99.90;;;;;;4929647;29;20118;-77
2021/01/18 09:51:23;;;;;;;7.10;2.97;;;1.10;99.90;;;;;;4929224;29;20115;-78
2021/01/18 09:53:59;;;;;;;8.50;3.40;;;1.30;99.90;;;;;;4929844;29;20350;-76
2021/01/18 09:56:27;;;;;;;8.63;3.00;;;1.30;99.90;;;;;;4929966;29;20040;-76
2021/01/18 09:58:58;;;;;;;11.00;4.63;;;1.30;99.90;;;;;;4932351;29;20123;-78
2021/01/18 10:01:33;;;;;;;7.38;3.05;;;1.40;99.90;;;;;;4928600;29;20031;-76
2021/01/18 10:04:00;;;;;;;4.63;1.77;;;1.40;99.90;;;;;;4929471;29;20047;-77
2021/01/18 10:06:28;;;;;;;5.20;2.73;;;1.40;99.90;;;;;;4929217;29;20552;-77
2021/01/18 10:09:12;;;;;;;9.00;3.33;;;1.40;99.90;;;;;;4928873;29;20053;-78
2021/01/18 10:11:46;;;;;;;12.63;4.07;;;1.40;99.90;;;;;;4926927;29;20043;-77
2021/01/18 10:14:25;;;;;;;6.65;3.15;;;1.50;99.90;;;;;;4932576;29;20051;-76
2021/01/18 10:17:00;;;;;;;7.50;3.33;;;1.50;99.90;;;;;;5018133;28;20041;-76
2021/01/18 10:19:27;;;;;;;6.07;2.17;;;1.50;99.90;;;;;;5024174;28;20493;-77
2021/01/18 10:21:53;;;;;;;4.20;2.83;;;1.50;99.90;;;;;;5027449;28;20094;-77
2021/01/18 10:24:30;;;;;;;11.33;4.20;;;1.50;99.90;;;;;;5027538;28;20040;-79
2021/01/18 10:27:06;;;;;;;10.80;4.50;;;1.50;99.90;;;;;;5026843;28;20099;-75
2021/01/18 10:29:32;;;;;;;4.37;2.30;;;1.60;99.90;;;;;;5027871;28;20041;-77
2021/01/18 10:31:59;;;;;;;7.32;2.45;;;1.60;99.90;;;;;;5028313;28;20028;-77
2021/01/18 10:34:29;;;;;;;9.60;4.10;;;1.50;99.90;;;;;;5022677;28;20030;-79
2021/01/18 10:36:57;;;;;;;8.53;3.47;;;1.60;99.90;;;;;;5028292;28;20388;-78
2021/01/18 10:39:26;;;;;;;5.70;2.65;;;1.60;99.90;;;;;;5028055;28;20033;-78
2021/01/18 10:42:00;;;;;;;7.00;3.33;;;1.60;99.90;;;;;;5027987;28;20026;-76
2021/01/18 10:44:25;;;;;;;4.97;2.63;;;1.60;99.90;;;;;;5027906;28;20303;-76
2021/01/18 10:46:51;;;;;;;7.70;3.07;;;1.50;99.90;;;;;;5028562;28;20025;-76
2021/01/18 10:49:28;;;;;;;10.90;4.38;;;1.60;99.90;;;;;;5027631;28;20116;-76
2021/01/18 10:51:57;;;;;;;10.40;4.70;;;1.60;99.90;;;;;;5027410;28;20040;-76
2021/01/18 10:54:24;;;;;;;;;;;1.60;99.90;;;;;;5027152;28;20494;-77
2021/01/18 10:56:50;;;;;;;5.53;2.70;;;1.60;99.90;;;;;;5028884;28;19912;-76
2021/01/18 10:59:15;;;;;;;8.80;3.93;;;1.60;99.90;;;;;;5028220;28;20025;-75
2021/01/18 11:02:03;;;;;;;8.17;2.90;;;1.60;99.90;;;;;;5028846;28;20028;-75
2021/01/18 11:04:29;;;;;;;9.90;4.60;;;1.60;99.90;;;;;;5029581;28;20432;-77
2021/01/18 11:06:56;;;;;;;11.87;5.47;;;1.60;99.90;;;;;;5022135;28;20037;-76
2021/01/18 11:09:30;;;;;;;10.48;4.68;;;1.60;99.90;;;;;;5027262;28;20025;-76
2021/01/18 11:11:56;;;;;;;6.82;3.22;;;1.60;99.90;;;;;;5028176;28;20104;-77
2021/01/18 11:14:22;;;;;;;9.15;2.95;;;1.60;99.90;;;;;;5028082;28;20068;-76
2021/01/18 11:17:06;;;;;;;7.80;3.58;;;1.60;99.90;;;;;;5028293;28;20105;-77
2021/01/18 11:19:33;;;;;;;8.02;3.58;;;1.60;99.90;;;;;;5028611;28;20029;-79
2021/01/18 11:21:59;;;;;;;8.32;3.28;;;1.70;99.90;;;;;;5028231;28;20029;-76
2021/01/18 11:24:24;;;;;;;7.93;3.60;;;1.70;99.90;;;;;;5027781;28;20477;-76
2021/01/18 11:26:51;;;;;;;11.55;4.63;;;1.70;99.90;;;;;;5028025;28;20136;-77
2021/01/18 11:29:18;;;;;;;10.70;4.07;;;1.80;99.90;;;;;;5027815;28;20109;-77
2021/01/18 11:31:44;;;;;;;8.83;4.13;;;1.80;99.90;;;;;;5027550;28;20064;-77
2021/01/18 11:34:11;;;;;;;4.45;2.28;;;1.70;99.90;;;;;;5027774;28;20408;-75
2021/01/18 11:36:38;;;;;;;6.20;2.78;;;1.80;99.90;;;;;;5028188;28;20034;-78
2021/01/18 11:39:03;;;;;;;5.30;2.65;;;1.70;99.90;;;;;;5028216;28;20055;-76
2021/01/18 11:41:29;;;;;;;8.77;3.45;;;1.80;99.90;;;;;;5011912;28;20497;-77
2021/01/18 11:43:55;;;;;;;9.32;3.30;;;1.80;99.90;;;;;;5038873;28;20033;-78
2021/01/18 11:46:20;;;;;;;8.40;4.10;;;1.90;99.90;;;;;;5031788;28;20433;-77
2021/01/18 11:48:46;;;;;;;9.93;3.72;;;2.00;99.90;;;;;;5031740;28;20068;-75
2021/01/18 11:51:12;;;;;;;9.20;3.70;;;1.90;99.90;;;;;;5031578;28;20544;-76
2021/01/18 11:53:37;;;;;;;4.90;2.05;;;2.00;99.90;;;;;;5031766;28;20458;-77
2021/01/18 11:56:04;;;;;;;8.30;3.35;;;2.00;99.90;;;;;;5032544;28;20426;-76
2021/01/18 11:58:32;;;;;;;5.38;2.63;;;2.00;99.90;;;;;;5032057;28;20076;-75
2021/01/18 12:00:57;;;;;;;7.22;3.38;;;2.10;99.90;;;;;;5031677;28;20045;-77
2021/01/18 12:03:25;;;;;;;5.43;2.92;;;2.10;99.90;;;;;;5013899;28;20025;-76
2021/01/18 12:05:50;;;;;;;7.13;3.28;;;2.10;99.90;;;;;;5014121;28;20485;-76
2021/01/18 12:08:16;;;;;;;4.60;1.75;;;2.20;99.90;;;;;;5031751;28;20032;-76
2021/01/18 12:10:42;;;;;;;5.47;2.58;;;2.20;99.90;;;;;;5031902;28;20596;-76
2021/01/18 12:13:07;;;;;;;7.22;2.08;;;2.20;99.90;;;;;;5031239;28;20053;-80
2021/01/18 12:15:33;;;;;;;4.90;1.80;;;2.30;99.90;;;;;;5031517;28;20080;-77
2021/01/18 12:18:00;;;;;;;5.63;2.40;;;2.30;99.90;;;;;;5031117;28;20036;-77
2021/01/18 12:20:26;;;;;;;6.32;2.90;;;2.30;99.90;;;;;;5029902;28;20123;-76
2021/01/18 12:22:56;;;;;;;7.63;2.65;;;2.40;99.90;;;;;;5031148;28;20025;-79
2021/01/18 12:25:23;;;;;;;6.35;2.80;;;2.40;99.90;;;;;;5031578;28;20036;-80
2021/01/18 12:27:51;;;;;;;6.43;2.60;;;2.30;99.90;;;;;;5031365;28;20037;-75
2021/01/18 12:30:17;;;;;;;4.53;2.55;;;2.30;99.90;;;;;;5031052;28;20475;-76
2021/01/18 12:32:43;;;;;;;5.80;2.78;;;2.30;99.90;;;;;;5030761;28;20136;-76
2021/01/18 12:35:09;;;;;;;11.18;3.00;;;2.40;99.90;;;;;;5030385;28;20033;-76
2021/01/18 12:37:34;;;;;;;4.22;2.17;;;2.40;99.90;;;;;;5030486;28;20120;-76
2021/01/18 12:40:00;;;;;;;5.47;2.05;;;2.30;99.90;;;;;;5031050;28;20108;-77
2021/01/18 12:42:26;;;;;;;7.32;3.25;;;2.30;99.90;;;;;;5030480;28;20025;-77
2021/01/18 12:44:51;;;;;;;6.65;3.00;;;2.30;99.90;;;;;;5031350;28;20032;-76
2021/01/18 12:47:17;;;;;;;5.32;2.53;;;2.30;99.90;;;;;;5029732;28;20053;-77
2021/01/18 12:49:42;;;;;;;6.13;2.50;;;2.20;99.90;;;;;;5029490;28;20064;-76
2021/01/18 12:52:11;;;;;;;5.20;2.17;;;2.20;99.90;;;;;;5029091;28;20438;-76
2021/01/18 12:54:37;;;;;;;4.40;2.05;;;2.10;99.90;;;;;;5029484;28;20029;-76
2021/01/18 12:57:03;;;;;;;7.47;2.75;;;2.10;99.90;;;;;;5030210;28;20021;-76
2021/01/18 12:59:29;;;;;;;4.15;1.85;;;2.10;99.90;;;;;;5029319;28;20029;-76
2021/01/18 13:01:54;;;;;;;7.67;2.83;;;2.10;99.90;;;;;;5028478;28;20025;-76
2021/01/18 13:04:20;;;;;;;3.15;1.75;;;2.10;99.90;;;;;;5027921;28;20025;-75
2021/01/18 13:06:48;;;;;;;3.58;2.20;;;2.10;99.90;;;;;;5029628;28;20026;-75
2021/01/18 13:09:18;;;;;;;4.73;1.80;;;2.00;99.90;;;;;;5029097;28;20686;-74